Time;durP1;ratioP1;P1;durP2;ratioP2;P2;SDS_P1;SDS_P2;PMS_P1;PMS_P2;Temp;Humidity;BMP_temperature;BMP_pressure;BME280_temperature;BME280_humidity;BME280_pressure;Samples;Min_cycle;Max_cycle;Signal;HPM_P1;HPM_P2
2023/12/07 00:00:31;;;;;;;16.33;9.70;;;5.20;88.70;;;;;;2543125;28;20049;-77
2023/12/07 00:01:45;;;;;;;12.90;11.40;;;5.20;88.60;;;;;;2543209;28;20123;-77
2023/12/07 00:02:59;;;;;;;14.20;10.90;;;5.20;88.50;;;;;;2544949;28;20095;-78
2023/12/07 00:04:14;;;;;;;14.23;10.40;;;5.20;88.40;;;;;;2543713;28;20133;-77
2023/12/07 00:05:28;;;;;;;14.38;9.52;;;5.20;88.30;;;;;;2543884;28;20075;-78
2023/12/07 00:06:42;;;;;;;14.80;10.73;;;5.20;88.30;;;;;;2543673;28;20049;-77
2023/12/07 00:07:57;;;;;;;14.13;12.45;;;5.20;88.20;;;;;;2545044;28;20041;-78
2023/12/07 00:09:12;;;;;;;13.50;10.45;;;5.20;88.10;;;;;;2546119;28;20057;-78
2023/12/07 00:10:26;;;;;;;17.35;10.88;;;5.20;88.10;;;;;;2544121;28;20056;-77
2023/12/07 00:11:40;;;;;;;18.35;11.18;;;5.20;88.00;;;;;;2556837;22;20539;-83
2023/12/07 00:12:54;;;;;;;14.05;10.07;;;5.20;88.00;;;;;;2541860;28;20045;-82
2023/12/07 00:14:09;;;;;;;17.48;10.40;;;5.20;88.00;;;;;;2541874;28;20471;-83
2023/12/07 00:15:23;;;;;;;11.10;9.38;;;5.10;87.90;;;;;;2538929;28;20048;-83
2023/12/07 00:16:37;;;;;;;19.77;11.93;;;5.10;87.90;;;;;;2539029;28;20071;-83
2023/12/07 00:17:51;;;;;;;13.15;9.85;;;5.20;88.00;;;;;;2537594;28;20200;-82
2023/12/07 00:19:06;;;;;;;23.17;10.85;;;5.10;87.90;;;;;;2533888;28;20124;-81
2023/12/07 00:20:20;;;;;;;12.68;9.50;;;5.10;87.80;;;;;;2541029;28;20053;-83
2023/12/07 00:21:34;;;;;;;13.27;9.45;;;5.10;87.80;;;;;;2532676;28;20057;-83
2023/12/07 00:22:48;;;;;;;17.15;10.35;;;5.10;87.80;;;;;;2537801;28;20045;-83
2023/12/07 00:24:05;;;;;;;13.00;10.23;;;5.10;87.80;;;;;;2533040;28;20473;-83
2023/12/07 00:25:18;;;;;;;16.75;10.45;;;5.10;87.80;;;;;;2533595;28;20061;-82
2023/12/07 00:26:33;;;;;;;16.50;11.57;;;5.10;87.70;;;;;;2533199;28;20052;-84
2023/12/07 00:27:47;;;;;;;13.68;9.80;;;5.10;87.80;;;;;;2533141;28;20045;-83
2023/12/07 00:29:02;;;;;;;15.98;10.02;;;5.10;87.70;;;;;;2533127;28;20048;-82
2023/12/07 00:30:16;;;;;;;17.42;9.60;;;5.10;87.70;;;;;;2533301;28;20056;-82
2023/12/07 00:31:30;;;;;;;14.20;9.65;;;5.10;88.40;;;;;;2532390;28;20043;-82
2023/12/07 00:32:44;;;;;;;16.20;9.63;;;5.10;87.70;;;;;;2532879;28;20041;-82
2023/12/07 00:33:59;;;;;;;15.15;10.40;;;5.10;87.70;;;;;;2533246;28;20045;-82
2023/12/07 00:35:14;;;;;;;17.90;10.18;;;5.10;87.70;;;;;;2532309;28;20048;-82
2023/12/07 00:36:29;;;;;;;11.88;9.90;;;5.10;87.70;;;;;;2524479;28;20053;-82
2023/12/07 00:37:42;;;;;;;19.90;12.57;;;5.10;87.70;;;;;;2533294;28;20438;-81
2023/12/07 00:38:57;;;;;;;14.65;9.98;;;5.00;87.60;;;;;;2532981;28;20041;-82
2023/12/07 00:40:12;;;;;;;14.30;9.18;;;5.00;87.60;;;;;;2533027;28;20049;-82
2023/12/07 00:41:27;;;;;;;12.30;9.80;;;5.00;87.50;;;;;;2532791;28;20562;-82
2023/12/07 00:42:41;;;;;;;16.48;9.45;;;5.00;87.50;;;;;;2533061;28;20406;-82
2023/12/07 00:43:55;;;;;;;11.25;8.45;;;5.00;87.50;;;;;;2532339;28;20037;-81
2023/12/07 00:45:11;;;;;;;12.07;9.65;;;5.00;87.50;;;;;;2532739;28;20041;-82
2023/12/07 00:46:26;;;;;;;11.27;8.50;;;5.00;87.50;;;;;;2533039;28;20120;-82
2023/12/07 00:47:39;;;;;;;12.23;8.50;;;5.00;87.40;;;;;;2538850;28;20048;-82
2023/12/07 00:48:54;;;;;;;13.30;8.13;;;5.00;87.40;;;;;;2543104;28;20041;-82
2023/12/07 00:50:12;;;;;;;18.75;9.80;;;5.00;87.40;;;;;;2542784;28;20045;-82
2023/12/07 00:51:27;;;;;;;12.20;8.93;;;5.00;87.50;;;;;;2542012;28;20037;-81
2023/12/07 00:52:41;;;;;;;13.88;9.43;;;5.00;87.60;;;;;;2542973;28;20048;-82
2023/12/07 00:53:55;;;;;;;12.73;8.45;;;5.00;87.50;;;;;;2543517;28;20091;-82
2023/12/07 00:55:09;;;;;;;12.30;9.48;;;4.90;87.40;;;;;;2542897;28;20048;-82
2023/12/07 00:56:25;;;;;;;11.65;8.73;;;5.00;87.40;;;;;;2543166;28;20041;-82
2023/12/07 00:57:39;;;;;;;12.10;9.60;;;5.00;87.40;;;;;;2544704;28;20073;-81
2023/12/07 00:58:54;;;;;;;14.68;10.23;;;4.90;87.30;;;;;;2544505;28;20043;-81
2023/12/07 01:00:09;;;;;;;10.45;8.55;;;4.90;87.30;;;;;;2534445;28;20056;-82
2023/12/07 01:01:24;;;;;;;15.68;10.40;;;4.90;87.30;;;;;;2534875;28;20470;-82
2023/12/07 01:02:37;;;;;;;14.05;9.35;;;4.90;87.30;;;;;;2535118;28;20058;-82
2023/12/07 01:03:52;;;;;;;19.50;10.75;;;4.90;87.20;;;;;;2533812;28;20083;-81
2023/12/07 01:05:06;;;;;;;11.68;8.85;;;4.90;87.20;;;;;;2534869;28;20584;-81
2023/12/07 01:06:21;;;;;;;14.60;10.35;;;5.00;87.20;;;;;;2534707;28;20457;-82
2023/12/07 01:07:35;;;;;;;12.60;8.98;;;4.90;87.10;;;;;;2534270;28;20045;-82
2023/12/07 01:08:49;;;;;;;12.82;8.90;;;4.90;87.10;;;;;;2534540;28;20484;-82
2023/12/07 01:10:04;;;;;;;12.25;9.93;;;5.00;87.10;;;;;;2534555;28;20084;-81
2023/12/07 01:11:19;;;;;;;12.30;8.63;;;4.90;87.00;;;;;;2533284;28;20038;-81
2023/12/07 01:12:35;;;;;;;12.75;8.70;;;4.90;87.00;;;;;;2533183;28;20049;-81
2023/12/07 01:13:50;;;;;;;12.07;9.52;;;4.90;87.00;;;;;;2533693;28;20442;-82
2023/12/07 01:15:04;;;;;;;12.50;9.23;;;4.90;87.00;;;;;;2534068;28;20050;-82
2023/12/07 01:16:19;;;;;;;12.77;9.25;;;4.90;87.00;;;;;;2534740;28;20037;-82
2023/12/07 01:17:33;;;;;;;12.73;10.90;;;4.90;86.90;;;;;;2534496;28;20053;-83
2023/12/07 01:18:47;;;;;;;14.73;9.77;;;4.90;86.90;;;;;;2534654;28;20049;-82
2023/12/07 01:20:03;;;;;;;14.73;9.98;;;4.90;86.90;;;;;;2533799;28;20045;-82
2023/12/07 01:21:18;;;;;;;12.55;9.30;;;5.00;87.00;;;;;;2534217;28;20041;-82
2023/12/07 01:22:32;;;;;;;17.48;9.95;;;4.90;86.90;;;;;;2534842;28;20052;-82
2023/12/07 01:23:46;;;;;;;12.43;8.80;;;4.90;86.80;;;;;;2541114;28;20120;-82
2023/12/07 01:25:00;;;;;;;16.88;9.05;;;4.90;86.80;;;;;;2544816;28;20056;-82
2023/12/07 01:26:15;;;;;;;15.95;8.93;;;4.90;86.70;;;;;;2544653;28;20037;-82
2023/12/07 01:27:28;;;;;;;15.45;9.80;;;4.90;86.70;;;;;;2539779;28;20049;-82
2023/12/07 01:28:44;;;;;;;16.20;9.82;;;4.90;86.70;;;;;;2534962;28;20037;-82
2023/12/07 01:29:58;;;;;;;13.65;8.60;;;4.90;86.70;;;;;;2535216;28;20049;-82
2023/12/07 01:31:13;;;;;;;15.80;9.07;;;4.90;86.70;;;;;;2533908;28;20136;-83
2023/12/07 01:32:27;;;;;;;15.57;9.63;;;4.80;86.60;;;;;;2533957;28;20499;-83
2023/12/07 01:33:41;;;;;;;13.35;10.27;;;4.80;86.60;;;;;;2534135;28;20052;-83
2023/12/07 01:34:55;;;;;;;15.20;10.20;;;4.80;86.60;;;;;;2533820;28;20045;-83
2023/12/07 01:36:11;;;;;;;17.13;11.85;;;4.80;86.60;;;;;;2541423;28;20529;-83
2023/12/07 01:37:25;;;;;;;18.20;10.35;;;4.70;86.60;;;;;;2544696;28;20052;-83
2023/12/07 01:38:39;;;;;;;13.35;10.40;;;4.70;86.70;;;;;;2541198;28;20045;-82
2023/12/07 01:39:53;;;;;;;16.95;11.02;;;4.70;86.70;;;;;;2539582;28;20464;-82
2023/12/07 01:41:08;;;;;;;16.30;10.32;;;4.60;86.80;;;;;;2537743;28;20076;-83
2023/12/07 01:42:22;;;;;;;15.95;9.98;;;4.60;86.80;;;;;;2535347;28;20487;-83
2023/12/07 01:43:36;;;;;;;23.15;10.95;;;4.60;86.90;;;;;;2540763;28;20041;-82
2023/12/07 01:44:51;;;;;;;15.15;10.95;;;4.60;87.00;;;;;;2534204;28;20525;-83
2023/12/07 01:46:06;;;;;;;21.08;11.00;;;4.60;87.10;;;;;;2541595;28;20045;-84
2023/12/07 01:47:20;;;;;;;15.70;12.38;;;4.50;87.10;;;;;;2543914;28;20152;-83
2023/12/07 01:48:35;;;;;;;15.23;10.75;;;4.50;87.10;;;;;;2544232;28;20484;-83
2023/12/07 01:49:49;;;;;;;17.50;12.38;;;4.50;87.10;;;;;;2544801;28;20052;-83
2023/12/07 01:51:04;;;;;;;16.52;11.20;;;4.50;87.10;;;;;;2543827;28;20044;-82
2023/12/07 01:52:20;;;;;;;14.43;11.20;;;4.50;87.10;;;;;;2536008;28;20391;-82
2023/12/07 01:53:35;;;;;;;16.63;10.95;;;4.50;87.10;;;;;;2534470;28;20057;-82
2023/12/07 01:54:49;;;;;;;14.30;9.77;;;4.50;87.80;;;;;;2534184;28;20041;-82
2023/12/07 01:56:04;;;;;;;12.80;9.35;;;4.40;86.90;;;;;;2540366;28;20417;-82
2023/12/07 01:57:18;;;;;;;14.90;9.18;;;4.40;86.90;;;;;;2535839;28;20124;-82
2023/12/07 01:58:33;;;;;;;16.88;11.20;;;4.40;86.80;;;;;;2544001;28;20036;-82
2023/12/07 01:59:46;;;;;;;14.27;9.40;;;4.40;86.80;;;;;;2540004;28;20046;-82
2023/12/07 02:01:04;;;;;;;14.02;10.35;;;4.30;86.70;;;;;;2539990;28;20040;-82
2023/12/07 02:02:18;;;;;;;14.55;10.40;;;4.30;86.60;;;;;;2536365;28;20045;-82
2023/12/07 02:03:33;;;;;;;14.23;9.85;;;4.30;86.60;;;;;;2533878;28;20135;-82
2023/12/07 02:04:47;;;;;;;16.77;11.82;;;4.20;86.60;;;;;;2534701;28;20049;-82
2023/12/07 02:06:03;;;;;;;14.52;9.75;;;4.10;86.60;;;;;;2534099;28;20565;-83
2023/12/07 02:07:17;;;;;;;16.52;10.50;;;4.10;86.60;;;;;;2533822;28;20471;-82
2023/12/07 02:08:32;;;;;;;13.90;10.98;;;4.00;86.60;;;;;;2544008;28;20048;-82
2023/12/07 02:09:46;;;;;;;12.50;9.00;;;4.00;86.60;;;;;;2543562;28;20053;-82
2023/12/07 02:11:02;;;;;;;16.23;9.02;;;3.90;86.60;;;;;;2533370;28;20041;-82
2023/12/07 02:12:15;;;;;;;18.42;12.00;;;3.80;86.60;;;;;;2541866;28;20048;-83
2023/12/07 02:13:30;;;;;;;12.93;9.02;;;3.70;86.60;;;;;;2533891;28;20073;-82
2023/12/07 02:14:44;;;;;;;21.08;11.15;;;3.70;86.70;;;;;;2532911;28;20501;-82
2023/12/07 02:16:01;;;;;;;13.45;9.75;;;3.60;86.70;;;;;;2539030;28;20041;-82
2023/12/07 02:17:24;;;;;;;18.45;11.48;;;3.60;86.80;;;;;;2536801;28;20049;-82
2023/12/07 02:18:41;;;;;;;;;;;3.50;86.90;;;;;;2527026;28;20129;-83
2023/12/07 02:20:01;;;;;;;16.58;9.63;;;3.40;86.60;;;;;;2538357;28;19920;-82
2023/12/07 02:21:26;;;;;;;16.27;10.50;;;3.30;87.20;;;;;;2536324;28;20045;-82
2023/12/07 02:22:43;;;;;;;17.48;11.50;;;3.20;87.30;;;;;;2536668;28;20049;-82
2023/12/07 02:23:59;;;;;;;14.25;10.40;;;3.20;87.50;;;;;;2544010;28;20128;-82
2023/12/07 02:25:14;;;;;;;17.90;10.65;;;3.10;87.50;;;;;;2536895;28;20046;-82
2023/12/07 02:26:33;;;;;;;21.77;12.60;;;3.10;87.70;;;;;;2541778;28;20051;-82
2023/12/07 02:27:46;;;;;;;21.50;11.73;;;3.10;87.90;;;;;;2537005;28;20446;-82
2023/12/07 02:29:01;;;;;;;18.77;12.02;;;3.00;87.90;;;;;;2543741;28;20051;-82
2023/12/07 02:30:15;;;;;;;21.17;14.27;;;2.90;87.80;;;;;;2535780;28;20046;-82
2023/12/07 02:31:30;;;;;;;17.95;12.15;;;2.90;88.00;;;;;;2541053;28;20114;-82
2023/12/07 02:32:45;;;;;;;18.05;10.85;;;2.90;88.90;;;;;;2533753;28;20475;-82
2023/12/07 02:34:00;;;;;;;23.50;11.90;;;2.90;88.40;;;;;;2533979;28;20049;-82
2023/12/07 02:35:15;;;;;;;15.35;10.30;;;2.90;88.50;;;;;;2533660;28;20422;-82
2023/12/07 02:36:33;;;;;;;17.80;11.93;;;2.80;88.50;;;;;;2533858;28;20073;-82
2023/12/07 02:37:49;;;;;;;15.30;10.80;;;2.80;88.50;;;;;;2534214;28;20064;-79
2023/12/07 02:39:05;;;;;;;21.70;12.90;;;2.80;88.60;;;;;;2533268;28;20047;-80
2023/12/07 02:40:22;;;;;;;15.70;11.25;;;2.70;88.50;;;;;;2541848;28;20413;-79
2023/12/07 02:41:40;;;;;;;17.48;12.25;;;2.60;88.50;;;;;;2525433;28;20056;-80
2023/12/07 02:42:55;;;;;;;15.40;10.98;;;2.60;88.60;;;;;;2533300;28;20049;-80
2023/12/07 02:44:10;;;;;;;19.25;11.70;;;2.60;88.70;;;;;;2533425;28;20045;-80
2023/12/07 02:45:25;;;;;;;20.83;11.93;;;2.50;88.70;;;;;;2534304;28;20418;-80
2023/12/07 02:46:40;;;;;;;24.30;13.25;;;2.50;88.80;;;;;;2533966;28;20052;-80
2023/12/07 02:47:54;;;;;;;20.00;12.90;;;2.50;88.90;;;;;;2533221;28;20037;-80
2023/12/07 02:49:08;;;;;;;23.42;13.82;;;2.50;89.00;;;;;;2533108;28;20046;-80
2023/12/07 02:50:23;;;;;;;15.70;10.80;;;2.40;89.00;;;;;;2534180;28;20045;-81
2023/12/07 02:51:37;;;;;;;16.25;12.00;;;2.40;89.00;;;;;;2533129;28;20612;-80
2023/12/07 02:52:51;;;;;;;16.75;11.70;;;2.40;89.10;;;;;;2533397;28;20049;-80
2023/12/07 02:54:06;;;;;;;17.73;14.10;;;2.30;89.10;;;;;;2534353;28;20063;-80
2023/12/07 02:55:20;;;;;;;19.52;12.30;;;2.30;89.20;;;;;;2533713;28;20042;-80
2023/12/07 02:56:34;;;;;;;20.77;11.77;;;2.30;89.30;;;;;;2533613;28;20426;-80
2023/12/07 02:57:51;;;;;;;18.35;12.98;;;2.20;89.40;;;;;;2533908;28;20041;-80
2023/12/07 02:59:05;;;;;;;18.77;12.20;;;2.20;89.40;;;;;;2534688;28;20099;-80
2023/12/07 03:00:21;;;;;;;23.08;12.73;;;2.20;89.50;;;;;;2543690;28;20460;-80
2023/12/07 03:01:36;;;;;;;19.83;10.85;;;2.20;89.60;;;;;;2543496;28;20064;-80
2023/12/07 03:02:50;;;;;;;22.38;12.65;;;2.10;89.60;;;;;;2543446;28;20131;-80
2023/12/07 03:04:05;;;;;;;19.13;13.18;;;2.10;89.60;;;;;;2543066;28;20128;-80
2023/12/07 03:05:20;;;;;;;17.55;12.98;;;2.10;89.60;;;;;;2544723;28;20045;-80
2023/12/07 03:06:34;;;;;;;18.42;11.35;;;2.10;89.70;;;;;;2543931;28;20049;-80
2023/12/07 03:07:48;;;;;;;24.60;13.77;;;2.00;89.70;;;;;;2543099;28;20037;-80
2023/12/07 03:09:03;;;;;;;21.63;11.30;;;2.00;89.70;;;;;;2544053;28;20051;-81
2023/12/07 03:10:17;;;;;;;19.05;10.75;;;2.00;89.80;;;;;;2543915;28;20049;-80
2023/12/07 03:11:32;;;;;;;22.58;12.63;;;1.90;89.70;;;;;;2542699;28;20112;-80
2023/12/07 03:12:46;;;;;;;18.65;11.85;;;1.90;89.80;;;;;;2543377;28;20052;-80
2023/12/07 03:14:02;;;;;;;22.35;13.82;;;1.90;89.90;;;;;;2543602;28;20499;-80
2023/12/07 03:15:15;;;;;;;21.23;13.18;;;1.90;90.00;;;;;;2543528;28;20047;-81
2023/12/07 03:16:30;;;;;;;21.85;12.93;;;1.80;89.90;;;;;;2544906;28;20047;-80
2023/12/07 03:17:44;;;;;;;19.08;12.75;;;1.80;90.00;;;;;;2543618;28;20047;-80
2023/12/07 03:18:58;;;;;;;21.25;11.90;;;1.80;90.00;;;;;;2543784;28;20045;-80
2023/12/07 03:20:13;;;;;;;19.67;12.30;;;1.70;90.00;;;;;;2543936;28;20049;-80
2023/12/07 03:21:28;;;;;;;27.52;13.68;;;1.70;90.00;;;;;;2543977;28;20049;-81
2023/12/07 03:22:42;;;;;;;22.50;11.25;;;1.70;90.00;;;;;;2544464;28;20052;-81
2023/12/07 03:23:56;;;;;;;19.90;12.48;;;1.70;90.10;;;;;;2543923;28;20306;-81
2023/12/07 03:25:11;;;;;;;18.02;12.30;;;1.70;90.10;;;;;;2544198;28;20048;-81
2023/12/07 03:26:26;;;;;;;23.27;13.10;;;1.60;90.10;;;;;;2543197;28;20124;-81
2023/12/07 03:27:39;;;;;;;17.08;12.23;;;1.60;90.10;;;;;;2543467;28;20049;-80
2023/12/07 03:28:54;;;;;;;21.73;12.18;;;1.60;90.10;;;;;;2544486;28;20041;-80
2023/12/07 03:30:10;;;;;;;20.73;11.80;;;1.60;90.20;;;;;;2544503;28;20044;-81
2023/12/07 03:31:25;;;;;;;20.75;12.95;;;1.60;90.20;;;;;;2543455;28;20092;-81
2023/12/07 03:32:38;;;;;;;27.70;14.45;;;1.50;90.20;;;;;;2544446;28;20307;-79
2023/12/07 03:33:53;;;;;;;18.33;13.50;;;1.50;90.20;;;;;;2543196;28;20299;-80
2023/12/07 03:35:07;;;;;;;21.80;13.40;;;1.50;90.20;;;;;;2543591;28;20064;-80
2023/12/07 03:36:22;;;;;;;23.10;13.65;;;1.50;90.30;;;;;;2543550;28;20048;-80
2023/12/07 03:37:36;;;;;;;24.38;15.23;;;1.50;90.40;;;;;;2543858;28;20555;-80
2023/12/07 03:38:51;;;;;;;21.45;12.18;;;1.50;90.40;;;;;;2543495;28;20040;-80
2023/12/07 03:40:06;;;;;;;26.15;13.95;;;1.50;90.40;;;;;;2542654;28;20448;-80
2023/12/07 03:41:21;;;;;;;22.25;13.68;;;1.50;90.40;;;;;;2543583;28;20634;-80
2023/12/07 03:42:34;;;;;;;19.33;11.70;;;1.40;90.40;;;;;;2543770;28;20049;-80
2023/12/07 03:43:49;;;;;;;22.73;13.15;;;1.40;90.40;;;;;;2542226;28;20288;-80
2023/12/07 03:45:04;;;;;;;21.85;11.90;;;1.40;90.50;;;;;;2543457;28;20049;-80
2023/12/07 03:46:20;;;;;;;23.17;12.32;;;1.40;90.50;;;;;;2543629;28;20107;-80
2023/12/07 03:47:33;;;;;;;25.33;13.00;;;1.40;90.50;;;;;;2542752;28;20049;-80
2023/12/07 03:48:48;;;;;;;29.05;14.13;;;1.40;90.50;;;;;;2543653;28;20307;-80
2023/12/07 03:50:02;;;;;;;29.23;14.90;;;1.40;90.50;;;;;;2543772;28;20045;-80
2023/12/07 03:51:16;;;;;;;31.55;15.32;;;1.40;90.60;;;;;;2543112;28;20072;-80
2023/12/07 03:52:30;;;;;;;18.77;13.77;;;1.40;90.60;;;;;;2543634;28;20049;-80
2023/12/07 03:53:45;;;;;;;24.08;13.80;;;1.40;90.70;;;;;;2543725;28;20309;-80
2023/12/07 03:54:59;;;;;;;24.50;13.90;;;1.40;90.70;;;;;;2543479;28;20045;-80
2023/12/07 03:56:24;;;;;;;18.77;12.43;;;1.40;90.80;;;;;;2544109;28;20043;-80
2023/12/07 03:57:38;;;;;;;20.83;13.57;;;1.40;90.80;;;;;;2543981;28;20053;-80
2023/12/07 03:58:52;;;;;;;22.05;12.80;;;1.40;90.80;;;;;;2543614;28;20045;-80
2023/12/07 04:00:09;;;;;;;26.08;12.00;;;1.40;90.80;;;;;;2543556;28;20524;-80
2023/12/07 04:01:24;;;;;;;19.48;14.43;;;1.40;90.80;;;;;;2543399;28;20771;-80
2023/12/07 04:02:39;;;;;;;21.17;12.35;;;1.40;90.80;;;;;;2543348;28;20311;-80
2023/12/07 04:03:54;;;;;;;22.75;12.68;;;1.40;90.80;;;;;;2543408;28;20037;-81
2023/12/07 04:05:09;;;;;;;21.67;11.68;;;1.40;90.80;;;;;;2544235;28;20313;-80
2023/12/07 04:06:24;;;;;;;22.70;11.20;;;1.40;90.80;;;;;;2543147;28;20067;-80
2023/12/07 04:07:38;;;;;;;20.55;12.20;;;1.40;90.80;;;;;;2542442;28;20232;-80
2023/12/07 04:08:52;;;;;;;17.48;10.98;;;1.30;90.80;;;;;;2543773;28;20303;-80
2023/12/07 04:10:08;;;;;;;22.65;12.55;;;1.30;90.80;;;;;;2543122;28;20295;-80
2023/12/07 04:11:22;;;;;;;19.45;12.05;;;1.30;90.70;;;;;;2542966;28;20041;-80
2023/12/07 04:12:37;;;;;;;22.60;12.15;;;1.30;90.70;;;;;;2543573;28;20303;-80
2023/12/07 04:13:50;;;;;;;18.15;10.52;;;1.30;91.00;;;;;;2543388;28;20045;-80
2023/12/07 04:15:06;;;;;;;22.88;11.90;;;1.20;90.70;;;;;;2542873;28;20041;-80
2023/12/07 04:16:20;;;;;;;25.05;13.38;;;1.20;90.60;;;;;;2543557;28;20045;-80
2023/12/07 04:17:36;;;;;;;25.40;12.82;;;1.10;90.60;;;;;;2543518;28;20820;-80
2023/12/07 04:18:50;;;;;;;23.13;12.18;;;1.10;90.50;;;;;;2544108;28;20504;-80
2023/12/07 04:20:05;;;;;;;24.50;12.20;;;1.10;90.50;;;;;;2542954;28;20294;-80
2023/12/07 04:21:19;;;;;;;25.05;13.38;;;1.00;90.50;;;;;;2543666;28;20075;-80
2023/12/07 04:22:34;;;;;;;22.58;11.27;;;1.00;90.50;;;;;;2542238;28;20347;-80
2023/12/07 04:23:48;;;;;;;23.58;12.73;;;0.90;90.50;;;;;;2542092;28;20048;-80
2023/12/07 04:25:03;;;;;;;21.60;11.82;;;0.90;90.50;;;;;;2542877;28;20303;-80
2023/12/07 04:26:16;;;;;;;23.98;12.13;;;0.80;90.50;;;;;;2543081;28;20045;-80
2023/12/07 04:27:31;;;;;;;25.63;12.77;;;0.80;90.50;;;;;;2542660;28;20040;-80
2023/12/07 04:28:45;;;;;;;21.67;11.98;;;0.80;90.60;;;;;;2543660;28;20045;-80
2023/12/07 04:30:00;;;;;;;24.77;12.02;;;0.70;90.60;;;;;;2543366;28;20319;-80
2023/12/07 04:31:14;;;;;;;24.48;14.50;;;0.70;90.60;;;;;;2542663;28;20399;-80
2023/12/07 04:32:28;;;;;;;22.48;12.50;;;0.70;90.60;;;;;;2545083;28;20877;-79
2023/12/07 04:33:43;;;;;;;24.75;13.23;;;0.70;90.70;;;;;;2545186;28;20330;-79
2023/12/07 04:34:58;;;;;;;16.48;11.13;;;0.60;90.60;;;;;;2545020;28;20303;-80
2023/12/07 04:36:13;;;;;;;25.38;13.70;;;0.60;90.60;;;;;;2544591;28;20658;-80
2023/12/07 04:37:27;;;;;;;21.17;12.13;;;0.60;90.70;;;;;;2544839;28;20330;-80
2023/12/07 04:38:41;;;;;;;27.27;12.30;;;0.60;90.70;;;;;;2537083;28;20308;-80
2023/12/07 04:39:55;;;;;;;27.60;13.30;;;0.60;90.60;;;;;;2544439;28;20110;-80
2023/12/07 04:41:10;;;;;;;28.25;13.57;;;0.50;90.60;;;;;;2544407;28;20314;-80
2023/12/07 04:42:23;;;;;;;22.52;13.18;;;0.50;90.60;;;;;;2544599;28;20056;-80
2023/12/07 04:43:38;;;;;;;27.65;14.15;;;0.50;90.70;;;;;;2543875;28;20302;-80
2023/12/07 04:44:52;;;;;;;23.23;10.93;;;0.50;90.70;;;;;;2544597;28;20421;-80
2023/12/07 04:46:07;;;;;;;25.30;12.60;;;0.50;90.70;;;;;;2545140;28;20304;-80
2023/12/07 04:47:21;;;;;;;29.70;13.07;;;0.50;90.80;;;;;;2544591;28;20048;-79
2023/12/07 04:48:36;;;;;;;29.58;13.88;;;0.50;90.80;;;;;;2544986;28;20311;-81
2023/12/07 04:49:51;;;;;;;25.65;12.10;;;0.50;90.80;;;;;;2545045;28;20311;-81
2023/12/07 04:51:06;;;;;;;26.88;12.65;;;0.50;90.80;;;;;;2544064;28;20730;-80
2023/12/07 04:52:19;;;;;;;23.77;11.55;;;0.50;90.80;;;;;;2544574;28;20310;-80
2023/12/07 04:53:34;;;;;;;22.23;13.48;;;0.50;90.80;;;;;;2544455;28;20319;-80
2023/12/07 04:54:49;;;;;;;23.58;12.95;;;0.50;90.90;;;;;;2544963;28;20061;-80
2023/12/07 04:56:04;;;;;;;29.83;11.77;;;0.40;90.80;;;;;;2544420;28;20291;-80
2023/12/07 04:57:18;;;;;;;22.88;12.88;;;0.40;90.90;;;;;;2544472;28;20311;-79
2023/12/07 04:58:32;;;;;;;23.95;12.25;;;0.40;90.90;;;;;;2544826;28;20335;-80
2023/12/07 04:59:46;;;;;;;23.83;13.43;;;0.40;90.90;;;;;;2544554;28;20041;-79
2023/12/07 05:01:02;;;;;;;27.42;13.45;;;0.40;90.90;;;;;;2544045;28;20346;-80
2023/12/07 05:02:16;;;;;;;27.20;12.57;;;0.40;90.90;;;;;;2544823;28;20303;-80
2023/12/07 05:03:32;;;;;;;21.42;13.63;;;0.40;90.90;;;;;;2543453;28;20283;-80
2023/12/07 05:04:46;;;;;;;30.15;15.70;;;0.40;90.90;;;;;;2544843;28;20311;-79
2023/12/07 05:06:02;;;;;;;24.65;14.30;;;0.30;90.90;;;;;;2544733;28;20355;-80
2023/12/07 05:07:16;;;;;;;22.83;12.60;;;0.30;90.90;;;;;;2544058;28;20072;-80
2023/12/07 05:08:31;;;;;;;25.50;12.43;;;0.30;90.90;;;;;;2544340;28;20310;-79
2023/12/07 05:09:45;;;;;;;23.70;14.82;;;0.30;90.90;;;;;;2544432;28;20776;-80
2023/12/07 05:11:00;;;;;;;29.55;13.45;;;0.30;90.90;;;;;;2543778;28;20313;-79
2023/12/07 05:12:14;;;;;;;24.52;14.48;;;0.30;91.00;;;;;;2544392;28;20781;-80
2023/12/07 05:13:29;;;;;;;26.60;13.20;;;0.30;91.00;;;;;;2544628;28;20307;-79
2023/12/07 05:14:43;;;;;;;27.83;14.25;;;0.30;91.00;;;;;;2536249;28;20308;-80
2023/12/07 05:15:57;;;;;;;31.27;13.90;;;0.30;91.00;;;;;;2543799;28;20291;-80
2023/12/07 05:17:11;;;;;;;19.00;12.32;;;0.30;91.00;;;;;;2545244;28;20071;-79
2023/12/07 05:18:26;;;;;;;25.83;13.80;;;0.20;91.00;;;;;;2547322;28;20311;-80
2023/12/07 05:19:39;;;;;;;31.30;14.27;;;0.20;91.00;;;;;;2546267;28;20045;-80
2023/12/07 05:20:54;;;;;;;26.38;14.20;;;0.20;91.00;;;;;;2547206;28;20313;-79
2023/12/07 05:22:09;;;;;;;23.58;12.95;;;0.20;91.00;;;;;;2544566;28;20482;-79
2023/12/07 05:23:24;;;;;;;30.30;14.20;;;0.20;91.00;;;;;;2542921;28;20309;-79
2023/12/07 05:24:38;;;;;;;30.85;14.75;;;0.20;91.00;;;;;;2543270;28;20306;-79
2023/12/07 05:25:54;;;;;;;26.58;13.98;;;0.20;91.00;;;;;;2543456;28;20780;-79
2023/12/07 05:27:07;;;;;;;29.02;14.52;;;0.20;91.00;;;;;;2543050;28;20068;-79
2023/12/07 05:28:22;;;;;;;32.75;14.30;;;0.10;91.00;;;;;;2543521;28;20303;-80
2023/12/07 05:29:36;;;;;;;24.85;14.13;;;0.10;91.00;;;;;;2543236;28;20053;-79
2023/12/07 05:30:51;;;;;;;31.17;15.68;;;0.10;91.00;;;;;;2543213;28;20769;-80
2023/12/07 05:32:05;;;;;;;33.10;14.75;;;0.10;91.10;;;;;;2542796;28;20036;-80
2023/12/07 05:33:20;;;;;;;27.85;14.07;;;0.10;91.10;;;;;;2543299;28;20963;-79
2023/12/07 05:34:35;;;;;;;27.50;13.57;;;0.10;91.10;;;;;;2543209;28;20323;-79
2023/12/07 05:35:50;;;;;;;33.35;13.90;;;0.10;91.10;;;;;;2542954;28;20283;-79
2023/12/07 05:37:04;;;;;;;27.40;14.32;;;0.10;91.10;;;;;;2543230;28;20660;-79
2023/12/07 05:38:20;;;;;;;25.30;14.38;;;0.10;91.10;;;;;;2543019;28;20303;-79
2023/12/07 05:39:33;;;;;;;30.33;14.77;;;0.10;91.10;;;;;;2542577;28;20060;-79
2023/12/07 05:40:48;;;;;;;26.73;14.43;;;0.10;91.10;;;;;;2542970;28;20309;-79
2023/12/07 05:42:04;;;;;;;32.05;12.93;;;0.00;91.10;;;;;;2543064;28;20041;-79
2023/12/07 05:43:18;;;;;;;32.83;15.23;;;0.00;91.10;;;;;;2542449;28;20282;-79
2023/12/07 05:44:32;;;;;;;28.63;15.63;;;0.00;91.10;;;;;;2542992;28;20303;-79
2023/12/07 05:45:47;;;;;;;25.92;14.32;;;0.00;91.20;;;;;;2543124;28;20314;-78
2023/12/07 05:47:00;;;;;;;24.20;13.45;;;0.00;91.20;;;;;;2542943;28;20056;-79
2023/12/07 05:48:15;;;;;;;23.13;15.32;;;0.00;91.20;;;;;;2543374;28;20731;-79
2023/12/07 05:49:29;;;;;;;25.27;13.23;;;0.00;91.20;;;;;;2543267;28;20056;-79
2023/12/07 05:50:44;;;;;;;26.17;14.07;;;0.00;91.20;;;;;;2543335;28;20314;-79
2023/12/07 05:51:57;;;;;;;23.90;14.30;;;0.00;91.20;;;;;;2542342;28;20056;-79
2023/12/07 05:53:12;;;;;;;26.25;15.00;;;0.00;91.10;;;;;;2543160;28;20307;-79
2023/12/07 05:54:27;;;;;;;33.72;15.85;;;0.00;91.10;;;;;;2543284;28;20052;-80
2023/12/07 05:55:42;;;;;;;24.83;14.05;;;-0.10;91.00;;;;;;2542235;28;20299;-79
2023/12/07 05:56:56;;;;;;;33.55;16.20;;;-0.10;91.00;;;;;;2543463;28;20304;-79
2023/12/07 05:58:11;;;;;;;66.65;37.35;;;-0.10;91.30;;;;;;2543080;28;20306;-79
2023/12/07 05:59:25;;;;;;;54.35;27.27;;;-0.10;91.00;;;;;;2542525;28;20104;-79
2023/12/07 06:00:40;;;;;;;33.88;19.25;;;-0.10;91.00;;;;;;2542810;28;20448;-79
2023/12/07 06:01:53;;;;;;;31.23;17.27;;;-0.10;91.00;;;;;;2542943;28;20458;-79
2023/12/07 06:03:09;;;;;;;23.92;14.20;;;-0.20;91.00;;;;;;2542658;28;20311;-79
2023/12/07 06:04:23;;;;;;;33.15;16.40;;;-0.10;91.10;;;;;;2543120;28;20128;-79
2023/12/07 06:05:38;;;;;;;26.20;16.48;;;-0.20;91.10;;;;;;2543515;28;20311;-79
2023/12/07 06:06:52;;;;;;;25.20;13.38;;;-0.20;91.10;;;;;;2543353;28;20052;-79
2023/12/07 06:08:07;;;;;;;28.02;15.55;;;-0.20;91.10;;;;;;2545366;28;20663;-79
2023/12/07 06:09:21;;;;;;;32.28;14.82;;;-0.20;91.10;;;;;;2546514;28;20045;-79
2023/12/07 06:10:38;;;;;;;24.63;12.93;;;-0.20;91.10;;;;;;2542916;28;20331;-79
2023/12/07 06:11:52;;;;;;;30.17;14.38;;;-0.20;91.10;;;;;;2542282;28;20075;-79
2023/12/07 06:13:06;;;;;;;28.58;14.98;;;-0.20;91.10;;;;;;2542918;28;20303;-78
2023/12/07 06:14:22;;;;;;;27.40;13.47;;;-0.20;91.10;;;;;;2560064;22;20031;-81
2023/12/07 06:15:37;;;;;;;26.55;13.68;;;-0.30;91.00;;;;;;2556151;28;20290;-81
2023/12/07 06:16:51;;;;;;;27.33;14.03;;;-0.30;91.00;;;;;;2555527;28;20298;-80
2023/12/07 06:18:06;;;;;;;28.57;16.27;;;-0.30;91.00;;;;;;2554955;28;20662;-80
2023/12/07 06:19:21;;;;;;;30.00;15.17;;;-0.30;91.00;;;;;;2554717;28;20046;-83
2023/12/07 06:20:35;;;;;;;22.90;14.17;;;-0.30;91.00;;;;;;2554933;28;20306;-83
2023/12/07 06:21:49;;;;;;;25.07;13.43;;;-0.30;91.10;;;;;;2555190;28;20378;-83
2023/12/07 06:23:04;;;;;;;27.50;14.40;;;-0.30;91.10;;;;;;2554913;28;20817;-83
2023/12/07 06:24:18;;;;;;;26.77;14.40;;;-0.30;91.10;;;;;;2554941;28;20128;-79